首页
METAR-TAF:

METAR-TAF

机场 :

图诺什纳机场

雅罗斯拉夫尔, 俄罗斯

纬度: 57-33-38N, 经度: 040-09-27E, 海拔: 87米

当前天气观测

该预报发布于31分钟前的04:30 UTC
风速10节,风向西
温度 0°C
湿度 80%
气压 992 hPa
能见度10公里或以上
多云层高于3000英尺

METAR: UUDL 250430Z 26005MPS 9999 BKN030 M00/M03 Q0992 R23/891035 NOSIG RMK QFE736

时间: 08:01 (05:01 UTC)

预报

该预报发布于3小时和1分钟前的02:00 UTC
预报有效从25日的 03点(UTC)到 26日的 03点(UTC)
风速10节,风向西
能見度: 8000
多云层高于1600英尺
短暂存在
从 25日的 08点(UTC)到 25日的 19点(UTC)
风速14节,风向西,有时为23节阵风
能見度: 3100
多云层高于1200英尺, 积雨云.
小阵雪, 高吹雪
成为
从 25日的 19点(UTC)到 25日的 21点(UTC)
风速10节,风向西转西北

TAF: UUDL 250200Z 2503/2603 26005MPS 8000 BKN016 TX00/2512Z TNM03/2603Z TEMPO 2508/2519 28007G12MPS 3100 -SHSN BLSN BKN012CB BECMG 2519/2521 30005MPS

超过4000个机场的气象观测和天气预报(METAR&TAF报告)。

可查询的气象台以黄色和红色小点在地图上表示。

将鼠标移到小点上方,可查看气象台名称。

然后点击查看天气观测和预报。

如需切换地图:点击带黑十字的绿色按钮放大地图;点击带横线的绿色按钮缩小地图;或者点击绿色箭头查看邻近地区的地图。


METAR-TAF: